Reisterstown, Maryland
Current Conditions -  °F | °C
As of 3:15 PM on Friday 31 Oct 2014 (Local Time) from KDMW Reporting Station
Overcast Overcast  
Wind Chill: 52°   Ceiling: 5000
Heat Index: 52°   Visibility: 10mi
Dew Point: 34°   Wind: 0mph
Humidity: 50%   Direction: NA
Pressure: 29.88"   Gusts: NA
Location:  39.46°N, 76.83°W
Report Text: KDMW 311915Z AUTO 00000KT 10SM SCT040 OVC050 11/01 A2988 RMK AO2
Loading
Personal Weather Stations






























Interactive Weather Map
Tropical Storm Tracking
New forecast layout! Learn more

10-Day Weather Forecast

Advertisements
Track Severe Weather on mobile